Medina, Saudi Arabia
Current Conditions -  °F | °C
As of 3:00 PM on Tuesday 21 Oct 2014 (Local Time) from OEMA Reporting Station
Clear Clear  
Wind Chill: 91°   Ceiling: Unl
Heat Index: 91°   Visibility: 6mi
Dew Point: 36°   Wind: 12mph
Humidity: 14%   Direction: 260°W
Pressure: 29.97"   Gusts: NA
Location:  24.46°N, 39.62°E
Report Text: OEMA 211200Z 26010KT 9000 SKC 33/02 Q1015 NOSIG
Loading
Personal Weather Stations






























Interactive Weather Map
Tropical Storm Tracking
New forecast layout! Learn more

10-Day Weather Forecast

Advertisements
Track Severe Weather on mobile